Amboy, Indiana
Current Conditions -  °F | °C
As of 12:35 PM on Saturday 25 Oct 2014 (Local Time) from KOKK Reporting Station
Clear Clear  
Wind Chill: 66°   Ceiling: Unl
Heat Index: 66°   Visibility: 10mi
Dew Point: 55°   Wind: 17mph
Humidity: 68%   Direction: 280°W
Pressure: 29.95"   Gusts: NA
Location:  40.6°N, 85.93°W
Report Text: KOKK 251635Z AUTO 28015KT 10SM CLR 19/13 A2995 RMK AO1
Loading
Personal Weather Stations






























Interactive Weather Map
Tropical Storm Tracking
New forecast layout! Learn more

10-Day Weather Forecast

Advertisements
Track Severe Weather on mobile